createdAt,value
2022-09-11T00:02:08.068Z,12.17
2022-09-11T00:04:37.074Z,12.17
2022-09-11T00:07:05.198Z,12.13
2022-09-11T00:09:37.685Z,12.14
2022-09-11T00:12:07.327Z,12.28
2022-09-11T00:14:35.609Z,12.26
2022-09-11T00:17:05.594Z,12.25
2022-09-11T00:19:35.990Z,12.26
2022-09-11T00:22:04.094Z,12.22
2022-09-11T00:24:32.521Z,12.22
2022-09-11T00:27:00.975Z,12.19
2022-09-11T00:29:31.018Z,12.21
2022-09-11T00:32:24.702Z,12.06
2022-09-11T00:34:55.794Z,12.10
2022-09-11T00:37:23.700Z,12.20
2022-09-11T00:39:52.795Z,12.19
2022-09-11T00:42:22.177Z,12.03
2022-09-11T00:45:03.638Z,12.13
2022-09-11T00:47:33.561Z,12.18
2022-09-11T00:50:11.005Z,12.16
2022-09-11T00:52:43.084Z,12.13
2022-09-11T00:55:15.638Z,11.98
2022-09-11T00:57:49.754Z,11.97
2022-09-11T01:00:18.101Z,11.99
2022-09-11T01:02:52.803Z,12.07
2022-09-11T01:05:22.700Z,12.05
2022-09-11T01:07:54.814Z,12.05
2022-09-11T01:10:29.185Z,12.07
2022-09-11T01:13:07.376Z,11.82
2022-09-11T01:15:40.290Z,12.05
2022-09-11T01:18:20.510Z,12.08
2022-09-11T01:21:09.306Z,12.06
2022-09-11T01:24:10.627Z,12.06
2022-09-11T01:27:05.318Z,12.07
2022-09-11T01:29:41.643Z,12.07
2022-09-11T01:32:15.922Z,12.03
2022-09-11T01:34:50.940Z,11.98
2022-09-11T01:37:26.038Z,12.03
2022-09-11T01:40:00.004Z,12.01
2022-09-11T01:42:33.075Z,11.94
2022-09-11T01:45:06.056Z,11.99
2022-09-11T01:47:36.016Z,11.86
2022-09-11T01:50:09.823Z,11.96
2022-09-11T01:52:46.130Z,12.00
2022-09-11T01:55:19.999Z,11.90
2022-09-11T01:57:53.466Z,12.01
2022-09-11T02:00:23.582Z,11.94
2022-09-11T02:02:55.754Z,11.98
2022-09-11T02:05:29.178Z,11.98
2022-09-11T02:08:02.593Z,11.97
2022-09-11T02:10:35.190Z,11.84
2022-09-11T02:13:08.899Z,11.96
2022-09-11T02:15:47.883Z,11.87
2022-09-11T02:18:21.109Z,11.92
2022-09-11T02:20:49.170Z,11.96
2022-09-11T02:23:17.988Z,11.91
2022-09-11T02:25:46.182Z,11.92
2022-09-11T02:28:14.780Z,11.87
2022-09-11T02:30:44.980Z,11.95
2022-09-11T02:33:30.605Z,11.87
2022-09-11T02:36:14.459Z,11.91
2022-09-11T02:38:56.135Z,11.92
2022-09-11T02:41:28.563Z,11.88
2022-09-11T02:44:06.456Z,11.84
2022-09-11T02:46:53.433Z,11.83
2022-09-11T02:49:34.809Z,11.85
2022-09-11T02:52:09.436Z,11.85
2022-09-11T02:54:53.740Z,11.85
2022-09-11T02:57:27.542Z,11.85
2022-09-11T03:00:00.536Z,11.79
2022-09-11T03:02:31.574Z,11.76
2022-09-11T03:04:59.471Z,11.81
2022-09-11T03:07:27.613Z,11.83
2022-09-11T03:09:55.434Z,11.83
2022-09-11T03:12:23.870Z,11.79
2022-09-11T03:14:52.596Z,11.79
2022-09-11T03:17:21.917Z,11.64
2022-09-11T03:19:51.181Z,11.81
2022-09-11T03:22:19.437Z,11.79
2022-09-11T03:24:48.203Z,11.83
2022-09-11T03:27:17.204Z,11.84
2022-09-11T03:29:46.643Z,11.79
2022-09-11T03:32:16.168Z,11.81
2022-09-11T03:34:44.194Z,11.77
2022-09-11T03:37:14.085Z,11.84
2022-09-11T03:39:41.993Z,11.82
2022-09-11T03:42:12.304Z,11.74
2022-09-11T03:44:41.249Z,11.84
2022-09-11T03:47:09.288Z,11.83
2022-09-11T03:49:37.932Z,11.83
2022-09-11T03:52:06.616Z,11.84
2022-09-11T03:54:35.849Z,11.83
2022-09-11T03:57:03.776Z,11.85
2022-09-11T03:59:31.750Z,11.82
2022-09-11T04:01:59.765Z,11.79
2022-09-11T04:04:28.139Z,11.78
2022-09-11T04:06:56.167Z,11.68
2022-09-11T04:09:26.829Z,11.70
2022-09-11T04:11:56.529Z,11.76
2022-09-11T04:14:24.589Z,11.78
2022-09-11T04:16:52.780Z,11.79
2022-09-11T04:19:21.982Z,11.78
2022-09-11T04:21:49.929Z,11.78
2022-09-11T04:24:18.162Z,11.76
2022-09-11T04:26:47.287Z,11.75
2022-09-11T04:29:17.849Z,11.79
2022-09-11T04:31:46.241Z,11.80
2022-09-11T04:34:14.412Z,11.76
2022-09-11T04:36:43.708Z,11.83
2022-09-11T04:39:12.406Z,11.85
2022-09-11T04:41:40.370Z,11.82
2022-09-11T04:44:08.183Z,11.88
2022-09-11T04:46:37.372Z,11.92
2022-09-11T04:49:05.351Z,11.80
2022-09-11T04:51:35.432Z,11.94
2022-09-11T04:54:04.622Z,11.94
2022-09-11T04:56:34.973Z,11.91
2022-09-11T04:59:06.604Z,12.03
2022-09-11T05:01:35.776Z,12.02
2022-09-11T05:04:05.105Z,12.06
2022-09-11T05:06:34.021Z,12.08
2022-09-11T05:09:04.992Z,12.12
2022-09-11T05:11:33.220Z,12.08
2022-09-11T05:14:01.350Z,12.12
2022-09-11T05:16:31.089Z,12.19
2022-09-11T05:18:59.694Z,12.22
2022-09-11T05:21:29.584Z,12.24
2022-09-11T05:23:58.909Z,12.28
2022-09-11T05:26:29.010Z,12.34
2022-09-11T05:28:57.810Z,12.39
2022-09-11T05:31:26.676Z,12.40
2022-09-11T05:33:55.900Z,12.50
2022-09-11T05:36:24.733Z,12.55
2022-09-11T05:38:54.388Z,12.54
2022-09-11T05:41:23.851Z,12.62
2022-09-11T05:43:52.592Z,12.65
2022-09-11T05:46:21.936Z,12.70
2022-09-11T05:48:50.011Z,12.80
2022-09-11T05:51:20.335Z,12.87
2022-09-11T05:53:50.385Z,12.88
2022-09-11T05:56:21.472Z,12.98
2022-09-11T05:58:51.621Z,12.77
2022-09-11T06:01:21.952Z,13.12
2022-09-11T06:03:50.816Z,13.06
2022-09-11T06:06:21.219Z,13.25
2022-09-11T06:08:51.044Z,13.24
2022-09-11T06:11:21.993Z,13.39
2022-09-11T06:13:50.878Z,13.47
2022-09-11T06:16:20.567Z,13.52
2022-09-11T06:18:49.842Z,13.58
2022-09-11T06:21:20.636Z,13.63
2022-09-11T06:23:49.693Z,13.67
2022-09-11T06:26:19.212Z,13.72
2022-09-11T06:28:49.215Z,13.81
2022-09-11T06:31:19.317Z,13.82
2022-09-11T06:33:48.279Z,13.88
2022-09-11T06:36:18.236Z,13.90
2022-09-11T06:38:47.043Z,14.00
2022-09-11T06:41:16.509Z,14.07
2022-09-11T06:43:45.309Z,14.14
2022-09-11T06:46:16.557Z,14.20
2022-09-11T06:48:47.624Z,14.24
2022-09-11T06:51:17.633Z,14.23
2022-09-11T06:53:47.370Z,14.33
2022-09-11T06:56:17.264Z,14.34
2022-09-11T06:58:46.736Z,14.48
2022-09-11T07:01:17.148Z,14.53
2022-09-11T07:03:46.381Z,14.47
2022-09-11T07:06:15.183Z,14.57
2022-09-11T07:08:43.249Z,14.74
2022-09-11T07:11:12.885Z,14.85
2022-09-11T07:13:42.048Z,14.90
2022-09-11T07:16:14.788Z,15.00
2022-09-11T07:18:45.669Z,15.02
2022-09-11T07:21:16.790Z,15.02
2022-09-11T07:23:48.527Z,15.07
2022-09-11T07:26:17.557Z,15.01
2022-09-11T07:28:48.781Z,15.09
2022-09-11T07:31:20.999Z,15.09
2022-09-11T07:33:52.251Z,15.10
2022-09-11T07:36:21.610Z,15.14
2022-09-11T07:38:51.066Z,15.16
2022-09-11T07:41:21.309Z,15.03
2022-09-11T07:43:53.858Z,15.12
2022-09-11T07:46:22.675Z,15.18
2022-09-11T07:48:52.006Z,15.23
2022-09-11T07:51:20.145Z,15.25
2022-09-11T07:53:50.191Z,15.22
2022-09-11T07:56:23.274Z,15.16
2022-09-11T07:58:52.587Z,15.19
2022-09-11T08:01:22.856Z,15.21
2022-09-11T08:03:58.434Z,15.19
2022-09-11T08:06:28.025Z,15.11
2022-09-11T08:08:57.379Z,15.22
2022-09-11T08:11:29.534Z,15.13
2022-09-11T08:13:57.787Z,15.18
2022-09-11T08:16:28.200Z,15.18
2022-09-11T08:18:58.203Z,15.16
2022-09-11T08:21:27.669Z,15.28
2022-09-11T08:23:55.686Z,15.28
2022-09-11T08:26:26.131Z,15.26
2022-09-11T08:28:55.739Z,15.21
2022-09-11T08:31:26.356Z,15.22
2022-09-11T08:33:54.778Z,15.14
2022-09-11T08:36:24.390Z,15.15
2022-09-11T08:38:53.053Z,15.18
2022-09-11T08:41:33.714Z,15.20
2022-09-11T08:44:06.472Z,15.14
2022-09-11T08:46:38.549Z,15.22
2022-09-11T08:49:15.771Z,15.21
2022-09-11T08:51:47.360Z,15.18
2022-09-11T08:54:27.702Z,15.14
2022-09-11T08:57:11.530Z,15.22
2022-09-11T08:59:56.670Z,15.18
2022-09-11T09:02:44.281Z,15.22
2022-09-11T09:05:21.838Z,15.08
2022-09-11T09:08:21.381Z,15.12
2022-09-11T09:11:22.421Z,15.21
2022-09-11T09:14:16.835Z,15.35
2022-09-11T09:17:09.251Z,15.46
2022-09-11T09:20:02.835Z,15.31
2022-09-11T09:22:39.456Z,15.40
2022-09-11T09:25:14.633Z,15.69
2022-09-11T09:27:53.089Z,15.84
2022-09-11T09:30:31.581Z,15.89
2022-09-11T09:33:15.656Z,16.01
2022-09-11T09:35:46.489Z,16.14
2022-09-11T09:38:16.130Z,16.23
2022-09-11T09:40:56.613Z,16.38
2022-09-11T09:43:39.519Z,16.37
2022-09-11T09:46:18.895Z,16.43
2022-09-11T09:48:46.875Z,16.55
2022-09-11T09:51:39.887Z,16.30
2022-09-11T09:54:16.055Z,16.58
2022-09-11T09:56:53.356Z,16.53
2022-09-11T09:59:27.349Z,16.66
2022-09-11T10:01:55.383Z,16.48
2022-09-11T10:04:27.941Z,16.55
2022-09-11T10:07:08.276Z,16.69
2022-09-11T10:09:36.423Z,16.74
2022-09-11T10:12:08.728Z,16.83
2022-09-11T10:14:52.761Z,16.84
2022-09-11T10:17:32.048Z,16.88
2022-09-11T10:20:22.043Z,16.92
2022-09-11T10:22:51.159Z,17.14
2022-09-11T10:25:21.833Z,17.10
2022-09-11T10:28:01.836Z,17.09
2022-09-11T10:30:34.255Z,17.16
2022-09-11T10:33:06.440Z,17.32
2022-09-11T10:35:36.532Z,17.31
2022-09-11T10:38:18.051Z,17.30
2022-09-11T10:41:16.050Z,17.46
2022-09-11T10:43:51.266Z,17.34
2022-09-11T10:46:39.729Z,17.44
2022-09-11T10:49:19.287Z,17.42
2022-09-11T10:52:02.586Z,17.53
2022-09-11T10:54:45.875Z,17.50
2022-09-11T10:57:23.808Z,17.52
2022-09-11T11:00:03.828Z,17.53
2022-09-11T11:02:34.585Z,17.53
2022-09-11T11:05:06.154Z,17.50
2022-09-11T11:08:13.922Z,17.57
2022-09-11T11:11:04.397Z,17.51
2022-09-11T11:13:45.429Z,17.55
2022-09-11T11:16:23.228Z,17.58
2022-09-11T11:19:10.447Z,17.56
2022-09-11T11:21:49.360Z,17.49
2022-09-11T11:24:34.066Z,17.46
2022-09-11T11:27:21.720Z,17.44
2022-09-11T11:30:06.309Z,17.38
2022-09-11T11:32:50.189Z,17.42
2022-09-11T11:35:23.875Z,17.45
2022-09-11T11:37:56.740Z,17.34
2022-09-11T11:40:30.042Z,17.34
2022-09-11T11:43:01.907Z,17.43
2022-09-11T11:45:35.887Z,17.62
2022-09-11T11:48:10.528Z,17.65
2022-09-11T11:50:42.866Z,17.69
2022-09-11T11:53:18.555Z,17.86
2022-09-11T11:55:55.502Z,17.87
2022-09-11T11:58:35.807Z,18.03
2022-09-11T12:01:07.739Z,17.96
2022-09-11T12:03:45.624Z,17.89
2022-09-11T12:06:16.393Z,17.59
2022-09-11T12:08:47.227Z,17.89
2022-09-11T12:11:20.295Z,17.79
2022-09-11T12:13:49.578Z,17.91
2022-09-11T12:16:22.193Z,17.98
2022-09-11T12:19:07.782Z,18.07
2022-09-11T12:21:43.925Z,18.23
2022-09-11T12:24:19.086Z,18.43
2022-09-11T12:26:47.333Z,18.54
2022-09-11T12:29:51.870Z,18.63
2022-09-11T12:32:42.814Z,18.74
2022-09-11T12:35:32.275Z,18.86
2022-09-11T12:38:04.612Z,18.93
2022-09-11T12:40:37.824Z,19.28
2022-09-11T12:43:30.969Z,19.55
2022-09-11T12:45:59.027Z,19.77
2022-09-11T12:48:37.253Z,19.86
2022-09-11T12:51:17.404Z,19.95
2022-09-11T12:53:50.238Z,20.00
2022-09-11T12:56:21.987Z,20.05
2022-09-11T12:58:56.228Z,19.98
2022-09-11T13:01:30.728Z,20.08
2022-09-11T13:04:03.305Z,20.27
2022-09-11T13:06:42.800Z,20.37
2022-09-11T13:09:22.463Z,20.29
2022-09-11T13:11:52.493Z,20.36
2022-09-11T13:14:49.969Z,20.35
2022-09-11T13:17:26.038Z,20.38
2022-09-11T13:19:57.876Z,20.27
2022-09-11T13:22:31.083Z,20.37
2022-09-11T13:25:12.777Z,20.32
2022-09-11T13:27:46.593Z,20.41
2022-09-11T13:30:16.442Z,20.25
2022-09-11T13:32:47.288Z,20.36
2022-09-11T13:35:18.130Z,20.35
2022-09-11T13:37:54.496Z,20.03
2022-09-11T13:40:29.412Z,20.09
2022-09-11T13:42:57.861Z,20.23
2022-09-11T13:45:28.588Z,20.35
2022-09-11T13:47:58.111Z,20.30
2022-09-11T13:50:27.579Z,20.61
2022-09-11T13:52:57.164Z,20.71
2022-09-11T13:55:27.936Z,20.56
2022-09-11T13:57:58.670Z,20.50
2022-09-11T14:00:44.887Z,20.76
2022-09-11T14:03:21.713Z,20.74
2022-09-11T14:05:54.018Z,20.79
2022-09-11T14:08:32.589Z,21.05
2022-09-11T14:11:04.363Z,21.24
2022-09-11T14:13:37.684Z,21.37
2022-09-11T14:16:09.291Z,21.81
2022-09-11T14:18:41.851Z,22.08
2022-09-11T14:21:16.225Z,22.42
2022-09-11T14:23:48.562Z,23.07
2022-09-11T14:26:18.778Z,23.23
2022-09-11T14:29:05.907Z,23.20
2022-09-11T14:31:37.607Z,23.03
2022-09-11T14:34:19.864Z,22.83
2022-09-11T14:36:54.532Z,22.84
2022-09-11T14:39:36.425Z,22.77
2022-09-11T14:42:08.050Z,22.38
2022-09-11T14:44:39.399Z,22.16
2022-09-11T14:47:07.636Z,22.10
2022-09-11T14:49:35.545Z,22.04
2022-09-11T14:52:03.804Z,21.95
2022-09-11T14:54:36.146Z,21.67
2022-09-11T14:57:04.300Z,21.53
2022-09-11T14:59:32.601Z,21.20
2022-09-11T15:02:00.688Z,21.15
2022-09-11T15:04:31.322Z,20.96
2022-09-11T15:06:59.925Z,20.84
2022-09-11T15:09:28.257Z,20.95
2022-09-11T15:11:59.621Z,20.57
2022-09-11T15:14:54.453Z,20.14
2022-09-11T15:17:19.587Z,20.15
2022-09-11T15:19:49.995Z,19.80
2022-09-11T15:22:18.963Z,19.60
2022-09-11T15:24:48.253Z,19.40
2022-09-11T15:27:19.288Z,19.28
2022-09-11T15:29:47.310Z,19.22
2022-09-11T15:32:15.218Z,19.08
2022-09-11T15:34:47.446Z,18.88
2022-09-11T15:37:17.040Z,18.68
2022-09-11T15:39:45.036Z,18.50
2022-09-11T15:42:13.805Z,18.35
2022-09-11T15:44:43.208Z,18.24
2022-09-11T15:47:12.528Z,18.03
2022-09-11T15:49:42.523Z,17.97
2022-09-11T15:52:19.512Z,17.85
2022-09-11T15:54:48.970Z,17.63
2022-09-11T15:57:17.387Z,17.72
2022-09-11T15:59:46.750Z,17.63
2022-09-11T16:02:15.034Z,17.50
2022-09-11T16:04:43.082Z,17.59
2022-09-11T16:07:11.032Z,17.45
2022-09-11T16:09:39.267Z,17.34
2022-09-11T16:12:07.951Z,17.27
2022-09-11T16:14:38.435Z,17.29
2022-09-11T16:17:08.749Z,17.34
2022-09-11T16:19:38.599Z,17.14
2022-09-11T16:22:08.915Z,16.96
2022-09-11T16:24:38.136Z,16.86
2022-09-11T16:27:07.811Z,16.73
2022-09-11T16:30:08.910Z,16.62
2022-09-11T16:32:31.910Z,16.60
2022-09-11T16:35:00.324Z,16.49
2022-09-11T16:37:28.508Z,16.53
2022-09-11T16:39:56.494Z,16.53
2022-09-11T16:42:24.430Z,16.46
2022-09-11T16:44:53.630Z,16.40
2022-09-11T16:47:21.675Z,16.38
2022-09-11T16:50:06.383Z,16.16
2022-09-11T16:52:35.359Z,16.26
2022-09-11T16:55:03.430Z,16.16
2022-09-11T16:57:31.404Z,16.02
2022-09-11T16:59:59.642Z,15.86
2022-09-11T17:02:27.831Z,15.72
2022-09-11T17:04:57.089Z,15.62
2022-09-11T17:07:25.044Z,15.52
2022-09-11T17:09:55.171Z,15.29
2022-09-11T17:12:22.977Z,15.15
2022-09-11T17:14:51.081Z,15.02
2022-09-11T17:17:19.286Z,14.91
2022-09-11T17:19:50.490Z,14.73
2022-09-11T17:22:19.897Z,14.69
2022-09-11T17:24:47.796Z,14.62
2022-09-11T17:27:15.869Z,14.49
2022-09-11T17:29:44.849Z,14.41
2022-09-11T17:32:27.935Z,14.38
2022-09-11T17:34:56.931Z,14.32
2022-09-11T17:37:27.060Z,14.04
2022-09-11T17:39:55.750Z,14.02
2022-09-11T17:42:24.209Z,14.05
2022-09-11T17:44:52.061Z,13.94
2022-09-11T17:47:20.381Z,13.77
2022-09-11T17:49:49.947Z,13.63
2022-09-11T17:52:20.583Z,13.45
2022-09-11T17:54:50.156Z,13.40
2022-09-11T17:57:17.962Z,13.25
2022-09-11T17:59:49.920Z,13.10
2022-09-11T18:02:20.064Z,12.93
2022-09-11T18:04:48.752Z,12.85
2022-09-11T18:07:17.047Z,12.75
2022-09-11T18:09:45.300Z,12.51
2022-09-11T18:12:14.641Z,12.44
2022-09-11T18:14:43.881Z,12.26
2022-09-11T18:17:12.287Z,12.17
2022-09-11T18:19:40.208Z,12.00
2022-09-11T18:22:09.865Z,11.91
2022-09-11T18:24:39.847Z,11.81
2022-09-11T18:27:09.939Z,11.65
2022-09-11T18:29:40.786Z,11.60
2022-09-11T18:32:10.188Z,11.52
2022-09-11T18:34:38.429Z,11.44
2022-09-11T18:37:07.353Z,11.37
2022-09-11T18:39:35.478Z,11.27
2022-09-11T18:42:06.322Z,11.20
2022-09-11T18:44:34.256Z,11.12
2022-09-11T18:47:03.485Z,11.15
2022-09-11T18:49:31.593Z,11.07
2022-09-11T18:52:00.413Z,11.06
2022-09-11T18:54:30.087Z,11.00
2022-09-11T18:57:00.219Z,10.92
2022-09-11T18:59:28.396Z,10.83
2022-09-11T19:01:57.269Z,10.73
2022-09-11T19:04:27.202Z,10.64
2022-09-11T19:06:55.128Z,10.56
2022-09-11T19:09:23.122Z,10.48
2022-09-11T19:11:52.414Z,10.44
2022-09-11T19:14:21.080Z,10.39
2022-09-11T19:16:49.467Z,10.36
2022-09-11T19:19:17.434Z,10.29
2022-09-11T19:21:46.942Z,10.20
2022-09-11T19:24:15.011Z,10.20
2022-09-11T19:26:43.746Z,10.16
2022-09-11T19:29:13.257Z,10.19
2022-09-11T19:31:42.336Z,10.20
2022-09-11T19:34:13.104Z,10.27
2022-09-11T19:36:42.146Z,10.28
2022-09-11T19:39:12.396Z,10.26
2022-09-11T19:41:41.215Z,10.26
2022-09-11T19:44:13.117Z,10.26
2022-09-11T19:46:42.962Z,10.18
2022-09-11T19:49:11.867Z,10.02
2022-09-11T19:51:42.426Z,9.95
2022-09-11T19:54:12.844Z,9.93
2022-09-11T19:56:41.789Z,9.88
2022-09-11T19:59:10.317Z,9.77
2022-09-11T20:01:38.518Z,9.72
2022-09-11T20:04:06.841Z,9.63
2022-09-11T20:06:36.211Z,9.54
2022-09-11T20:11:55.909Z,9.35
2022-09-11T20:14:24.033Z,9.19
2022-09-11T20:16:51.786Z,9.24
2022-09-11T20:19:20.670Z,9.21
2022-09-11T20:21:48.807Z,9.10
2022-09-11T20:24:17.194Z,9.11
2022-09-11T20:26:45.372Z,9.08
2022-09-11T20:29:16.134Z,8.95
2022-09-11T20:31:48.652Z,8.88
2022-09-11T20:34:17.153Z,8.80
2022-09-11T20:36:48.305Z,8.61
2022-09-11T20:39:17.393Z,8.73
2022-09-11T20:41:45.567Z,8.73
2022-09-11T20:44:14.757Z,8.62
2022-09-11T20:46:43.862Z,8.63
2022-09-11T20:49:14.319Z,8.62
2022-09-11T20:51:42.170Z,8.59
2022-09-11T20:54:10.453Z,8.46
2022-09-11T20:56:38.598Z,8.49
2022-09-11T20:59:06.405Z,8.44
2022-09-11T21:01:36.307Z,8.41
2022-09-11T21:04:05.607Z,8.38
2022-09-11T21:06:35.214Z,8.31
2022-09-11T21:09:06.685Z,8.29
2022-09-11T21:11:35.859Z,8.21
2022-09-11T21:14:04.027Z,8.10
2022-09-11T21:16:32.033Z,8.14
2022-09-11T21:19:02.695Z,8.01
2022-09-11T21:21:31.114Z,8.05
2022-09-11T21:24:01.281Z,8.03
2022-09-11T21:26:31.021Z,7.96
2022-09-11T21:29:00.548Z,7.91
2022-09-11T21:31:30.393Z,7.84
2022-09-11T21:33:58.530Z,7.87
2022-09-11T21:36:28.386Z,7.82
2022-09-11T21:38:58.917Z,7.77
2022-09-11T21:41:27.079Z,7.71
2022-09-11T21:43:55.021Z,7.63
2022-09-11T21:46:23.075Z,7.57
2022-09-11T21:48:50.942Z,7.58
2022-09-11T21:51:21.033Z,7.52
2022-09-11T21:53:55.998Z,7.52
2022-09-11T21:56:25.949Z,7.44
2022-09-11T21:58:55.097Z,7.42
2022-09-11T22:01:25.205Z,7.36
2022-09-11T22:03:53.409Z,7.34
2022-09-11T22:06:23.748Z,7.34
2022-09-11T22:08:53.614Z,7.28
2022-09-11T22:11:22.067Z,7.23
2022-09-11T22:13:50.351Z,7.27
2022-09-11T22:16:20.331Z,7.24
2022-09-11T22:18:50.546Z,7.20
2022-09-11T22:21:18.505Z,7.17
2022-09-11T22:23:47.003Z,7.20
2022-09-11T22:26:19.208Z,7.17
2022-09-11T22:28:47.543Z,7.11
2022-09-11T22:31:18.221Z,7.04
2022-09-11T22:33:46.347Z,7.05
2022-09-11T22:36:17.045Z,7.00
2022-09-11T22:38:45.078Z,6.98
2022-09-11T22:41:13.980Z,6.87
2022-09-11T22:43:43.354Z,6.89
2022-09-11T22:46:12.477Z,6.85
2022-09-11T22:48:40.776Z,6.84
2022-09-11T22:51:09.443Z,6.80
2022-09-11T22:53:39.477Z,6.73
2022-09-11T22:56:09.513Z,6.73
2022-09-11T22:58:38.295Z,6.72
2022-09-11T23:01:09.556Z,6.68
2022-09-11T23:03:37.712Z,6.60
2022-09-11T23:06:23.716Z,6.61
2022-09-11T23:08:52.455Z,6.50
2022-09-11T23:11:21.273Z,6.50
2022-09-11T23:13:50.486Z,6.51
2022-09-11T23:16:26.258Z,6.47
2022-09-11T23:18:54.757Z,6.41
2022-09-11T23:21:23.829Z,6.43
2022-09-11T23:23:54.505Z,6.34
2022-09-11T23:26:23.540Z,6.35
2022-09-11T23:28:51.873Z,6.32
2022-09-11T23:31:24.925Z,6.31
2022-09-11T23:33:55.433Z,6.26
2022-09-11T23:36:24.151Z,6.26
2022-09-11T23:38:52.489Z,6.19
2022-09-11T23:41:20.736Z,6.15
2022-09-11T23:43:48.760Z,6.15
2022-09-11T23:46:17.384Z,6.15
2022-09-11T23:48:48.820Z,6.07
2022-09-11T23:51:17.622Z,6.05
2022-09-11T23:53:47.664Z,5.97
2022-09-11T23:56:16.159Z,5.96
2022-09-11T23:58:45.758Z,5.92
